sensor_id;sensor_type;location;lat;lon;timestamp;P1;durP1;ratioP1;P2;durP2;ratioP2
59766;SDS011;46248;58.364;25.582;2023-02-28T00:01:21;7.93;;;3.95;;
59766;SDS011;46248;58.364;25.582;2023-02-28T00:04:45;6.70;;;2.85;;
59766;SDS011;46248;58.364;25.582;2023-02-28T00:08:24;6.57;;;2.33;;
59766;SDS011;46248;58.364;25.582;2023-02-28T00:11:49;4.43;;;2.17;;
59766;SDS011;46248;58.364;25.582;2023-02-28T00:15:13;6.95;;;2.90;;
59766;SDS011;46248;58.364;25.582;2023-02-28T00:18:37;5.47;;;2.65;;
59766;SDS011;46248;58.364;25.582;2023-02-28T00:22:00;6.22;;;2.70;;
59766;SDS011;46248;58.364;25.582;2023-02-28T00:25:24;6.80;;;2.88;;
59766;SDS011;46248;58.364;25.582;2023-02-28T00:28:49;2.53;;;2.00;;
59766;SDS011;46248;58.364;25.582;2023-02-28T00:32:14;3.65;;;2.20;;
59766;SDS011;46248;58.364;25.582;2023-02-28T00:35:37;2.95;;;1.60;;
59766;SDS011;46248;58.364;25.582;2023-02-28T00:39:01;2.95;;;2.35;;
59766;SDS011;46248;58.364;25.582;2023-02-28T00:42:23;2.45;;;1.60;;
59766;SDS011;46248;58.364;25.582;2023-02-28T00:45:48;2.15;;;1.90;;
59766;SDS011;46248;58.364;25.582;2023-02-28T00:49:15;2.53;;;1.50;;
59766;SDS011;46248;58.364;25.582;2023-02-28T00:52:39;2.53;;;1.75;;
59766;SDS011;46248;58.364;25.582;2023-02-28T00:56:02;3.13;;;1.88;;
59766;SDS011;46248;58.364;25.582;2023-02-28T00:59:26;2.80;;;1.80;;
59766;SDS011;46248;58.364;25.582;2023-02-28T01:02:51;2.03;;;1.40;;
59766;SDS011;46248;58.364;25.582;2023-02-28T01:06:15;2.80;;;1.83;;
59766;SDS011;46248;58.364;25.582;2023-02-28T01:09:38;1.38;;;1.08;;
59766;SDS011;46248;58.364;25.582;2023-02-28T01:13:01;2.35;;;1.48;;
59766;SDS011;46248;58.364;25.582;2023-02-28T01:16:26;1.88;;;1.60;;
59766;SDS011;46248;58.364;25.582;2023-02-28T01:19:52;1.75;;;1.10;;
59766;SDS011;46248;58.364;25.582;2023-02-28T01:23:16;1.50;;;1.25;;
59766;SDS011;46248;58.364;25.582;2023-02-28T01:26:39;1.98;;;1.48;;
59766;SDS011;46248;58.364;25.582;2023-02-28T01:30:02;4.15;;;1.95;;
59766;SDS011;46248;58.364;25.582;2023-02-28T01:33:27;1.73;;;1.48;;
59766;SDS011;46248;58.364;25.582;2023-02-28T01:36:52;2.53;;;1.40;;
59766;SDS011;46248;58.364;25.582;2023-02-28T01:40:15;0.98;;;0.85;;
59766;SDS011;46248;58.364;25.582;2023-02-28T01:43:52;3.55;;;1.30;;
59766;SDS011;46248;58.364;25.582;2023-02-28T01:47:16;1.63;;;1.27;;
59766;SDS011;46248;58.364;25.582;2023-02-28T01:50:41;4.18;;;1.50;;
59766;SDS011;46248;58.364;25.582;2023-02-28T01:54:14;1.20;;;1.10;;
59766;SDS011;46248;58.364;25.582;2023-02-28T01:57:45;2.05;;;1.33;;
59766;SDS011;46248;58.364;25.582;2023-02-28T02:01:11;1.33;;;1.20;;
59766;SDS011;46248;58.364;25.582;2023-02-28T02:04:44;1.98;;;1.38;;
59766;SDS011;46248;58.364;25.582;2023-02-28T02:08:13;2.47;;;1.60;;
59766;SDS011;46248;58.364;25.582;2023-02-28T02:11:43;4.03;;;1.75;;
59766;SDS011;46248;58.364;25.582;2023-02-28T02:15:12;1.70;;;1.48;;
59766;SDS011;46248;58.364;25.582;2023-02-28T02:18:40;2.15;;;1.00;;
59766;SDS011;46248;58.364;25.582;2023-02-28T02:22:12;3.78;;;1.20;;
59766;SDS011;46248;58.364;25.582;2023-02-28T02:25:58;2.35;;;1.15;;
59766;SDS011;46248;58.364;25.582;2023-02-28T02:29:41;2.08;;;1.30;;
59766;SDS011;46248;58.364;25.582;2023-02-28T02:37:15;1.23;;;1.10;;
59766;SDS011;46248;58.364;25.582;2023-02-28T02:40:52;1.50;;;1.02;;
59766;SDS011;46248;58.364;25.582;2023-02-28T02:44:21;2.00;;;1.02;;
59766;SDS011;46248;58.364;25.582;2023-02-28T02:51:14;2.90;;;0.90;;
59766;SDS011;46248;58.364;25.582;2023-02-28T02:54:41;1.55;;;0.80;;
59766;SDS011;46248;58.364;25.582;2023-02-28T02:58:13;1.05;;;0.90;;
59766;SDS011;46248;58.364;25.582;2023-02-28T03:01:40;2.33;;;0.90;;
59766;SDS011;46248;58.364;25.582;2023-02-28T03:05:05;1.02;;;0.50;;
59766;SDS011;46248;58.364;25.582;2023-02-28T03:08:36;1.63;;;1.02;;
59766;SDS011;46248;58.364;25.582;2023-02-28T03:12:01;4.80;;;1.42;;
59766;SDS011;46248;58.364;25.582;2023-02-28T03:15:29;2.25;;;0.75;;
59766;SDS011;46248;58.364;25.582;2023-02-28T03:19:16;1.30;;;0.98;;
59766;SDS011;46248;58.364;25.582;2023-02-28T03:22:51;2.45;;;1.10;;
59766;SDS011;46248;58.364;25.582;2023-02-28T03:26:23;0.73;;;0.63;;
59766;SDS011;46248;58.364;25.582;2023-02-28T03:29:51;1.73;;;0.85;;
59766;SDS011;46248;58.364;25.582;2023-02-28T03:33:26;3.13;;;1.13;;
59766;SDS011;46248;58.364;25.582;2023-02-28T03:36:53;1.23;;;0.82;;
59766;SDS011;46248;58.364;25.582;2023-02-28T03:40:20;1.73;;;0.90;;
59766;SDS011;46248;58.364;25.582;2023-02-28T03:43:53;3.17;;;0.88;;
59766;SDS011;46248;58.364;25.582;2023-02-28T03:47:22;2.95;;;1.35;;
59766;SDS011;46248;58.364;25.582;2023-02-28T03:50:51;2.17;;;1.90;;
59766;SDS011;46248;58.364;25.582;2023-02-28T03:54:17;2.15;;;1.33;;
59766;SDS011;46248;58.364;25.582;2023-02-28T03:57:47;2.80;;;1.27;;
59766;SDS011;46248;58.364;25.582;2023-02-28T04:01:19;4.88;;;1.90;;
59766;SDS011;46248;58.364;25.582;2023-02-28T04:04:48;2.55;;;1.23;;
59766;SDS011;46248;58.364;25.582;2023-02-28T04:08:11;4.68;;;1.42;;
59766;SDS011;46248;58.364;25.582;2023-02-28T04:11:35;2.08;;;0.90;;
59766;SDS011;46248;58.364;25.582;2023-02-28T04:14:59;3.47;;;1.10;;
59766;SDS011;46248;58.364;25.582;2023-02-28T04:18:23;2.28;;;1.23;;
59766;SDS011;46248;58.364;25.582;2023-02-28T04:21:48;3.63;;;1.98;;
59766;SDS011;46248;58.364;25.582;2023-02-28T04:25:11;1.95;;;1.27;;
59766;SDS011;46248;58.364;25.582;2023-02-28T04:28:36;2.22;;;1.38;;
59766;SDS011;46248;58.364;25.582;2023-02-28T04:32:01;2.53;;;1.50;;
59766;SDS011;46248;58.364;25.582;2023-02-28T04:35:25;3.53;;;1.30;;
59766;SDS011;46248;58.364;25.582;2023-02-28T04:38:50;5.78;;;1.13;;
59766;SDS011;46248;58.364;25.582;2023-02-28T04:42:15;1.30;;;1.20;;
59766;SDS011;46248;58.364;25.582;2023-02-28T04:45:38;2.75;;;0.90;;
59766;SDS011;46248;58.364;25.582;2023-02-28T04:49:01;5.68;;;1.70;;
59766;SDS011;46248;58.364;25.582;2023-02-28T04:52:24;1.38;;;1.00;;
59766;SDS011;46248;58.364;25.582;2023-02-28T04:55:51;4.68;;;1.83;;
59766;SDS011;46248;58.364;25.582;2023-02-28T04:59:14;7.97;;;1.90;;
59766;SDS011;46248;58.364;25.582;2023-02-28T05:02:37;2.95;;;1.90;;
59766;SDS011;46248;58.364;25.582;2023-02-28T05:06:00;5.95;;;2.60;;
59766;SDS011;46248;58.364;25.582;2023-02-28T05:09:24;3.28;;;1.27;;
59766;SDS011;46248;58.364;25.582;2023-02-28T05:12:49;0.75;;;0.75;;
59766;SDS011;46248;58.364;25.582;2023-02-28T05:16:13;1.08;;;0.90;;
59766;SDS011;46248;58.364;25.582;2023-02-28T05:19:38;1.27;;;1.17;;
59766;SDS011;46248;58.364;25.582;2023-02-28T05:23:01;1.40;;;0.80;;
59766;SDS011;46248;58.364;25.582;2023-02-28T05:26:24;4.80;;;1.23;;
59766;SDS011;46248;58.364;25.582;2023-02-28T05:29:50;1.48;;;0.80;;
59766;SDS011;46248;58.364;25.582;2023-02-28T05:33:13;2.05;;;1.10;;
59766;SDS011;46248;58.364;25.582;2023-02-28T05:36:37;1.08;;;0.88;;
59766;SDS011;46248;58.364;25.582;2023-02-28T05:40:01;3.53;;;1.50;;
59766;SDS011;46248;58.364;25.582;2023-02-28T05:43:27;1.30;;;0.93;;
59766;SDS011;46248;58.364;25.582;2023-02-28T05:46:52;2.08;;;0.90;;
59766;SDS011;46248;58.364;25.582;2023-02-28T05:50:15;1.80;;;0.77;;
59766;SDS011;46248;58.364;25.582;2023-02-28T05:53:38;2.10;;;1.00;;
59766;SDS011;46248;58.364;25.582;2023-02-28T05:57:02;1.75;;;1.00;;
59766;SDS011;46248;58.364;25.582;2023-02-28T06:00:34;1.50;;;1.10;;
59766;SDS011;46248;58.364;25.582;2023-02-28T06:04:03;3.17;;;0.77;;
59766;SDS011;46248;58.364;25.582;2023-02-28T06:07:39;2.33;;;1.35;;
59766;SDS011;46248;58.364;25.582;2023-02-28T06:11:03;1.55;;;0.90;;
59766;SDS011;46248;58.364;25.582;2023-02-28T06:14:27;1.65;;;0.70;;
59766;SDS011;46248;58.364;25.582;2023-02-28T06:17:51;0.68;;;0.57;;
59766;SDS011;46248;58.364;25.582;2023-02-28T06:21:18;3.35;;;0.90;;
59766;SDS011;46248;58.364;25.582;2023-02-28T06:24:42;0.60;;;0.60;;
59766;SDS011;46248;58.364;25.582;2023-02-28T06:28:05;2.72;;;0.77;;
59766;SDS011;46248;58.364;25.582;2023-02-28T06:31:30;0.63;;;0.50;;
59766;SDS011;46248;58.364;25.582;2023-02-28T06:34:53;1.10;;;0.60;;
59766;SDS011;46248;58.364;25.582;2023-02-28T06:38:19;9.65;;;6.40;;
59766;SDS011;46248;58.364;25.582;2023-02-28T06:41:42;2.50;;;1.48;;
59766;SDS011;46248;58.364;25.582;2023-02-28T06:45:14;4.03;;;0.98;;
59766;SDS011;46248;58.364;25.582;2023-02-28T06:48:37;1.63;;;0.80;;
59766;SDS011;46248;58.364;25.582;2023-02-28T06:52:00;0.50;;;0.50;;
59766;SDS011;46248;58.364;25.582;2023-02-28T06:55:26;1.88;;;0.82;;
59766;SDS011;46248;58.364;25.582;2023-02-28T06:58:50;2.28;;;1.02;;
59766;SDS011;46248;58.364;25.582;2023-02-28T07:02:14;0.63;;;0.50;;
59766;SDS011;46248;58.364;25.582;2023-02-28T07:05:38;0.52;;;0.52;;
59766;SDS011;46248;58.364;25.582;2023-02-28T07:09:01;1.33;;;0.60;;
59766;SDS011;46248;58.364;25.582;2023-02-28T07:12:27;3.05;;;0.65;;
59766;SDS011;46248;58.364;25.582;2023-02-28T07:15:54;2.45;;;0.50;;
59766;SDS011;46248;58.364;25.582;2023-02-28T07:19:17;1.83;;;0.50;;
59766;SDS011;46248;58.364;25.582;2023-02-28T07:22:40;2.28;;;0.43;;
59766;SDS011;46248;58.364;25.582;2023-02-28T07:26:06;1.90;;;0.47;;
59766;SDS011;46248;58.364;25.582;2023-02-28T07:29:35;1.90;;;0.60;;
59766;SDS011;46248;58.364;25.582;2023-02-28T07:32:59;4.85;;;0.82;;
59766;SDS011;46248;58.364;25.582;2023-02-28T07:36:22;2.45;;;0.80;;
59766;SDS011;46248;58.364;25.582;2023-02-28T07:39:46;1.85;;;0.43;;
59766;SDS011;46248;58.364;25.582;2023-02-28T07:43:09;1.85;;;1.10;;
59766;SDS011;46248;58.364;25.582;2023-02-28T07:46:34;0.50;;;0.40;;
59766;SDS011;46248;58.364;25.582;2023-02-28T07:49:57;4.10;;;0.93;;
59766;SDS011;46248;58.364;25.582;2023-02-28T07:53:21;1.65;;;1.00;;
59766;SDS011;46248;58.364;25.582;2023-02-28T07:56:45;3.15;;;1.00;;
59766;SDS011;46248;58.364;25.582;2023-02-28T08:00:08;8.35;;;2.40;;
59766;SDS011;46248;58.364;25.582;2023-02-28T08:03:35;2.03;;;0.80;;
59766;SDS011;46248;58.364;25.582;2023-02-28T08:06:58;1.15;;;0.60;;
59766;SDS011;46248;58.364;25.582;2023-02-28T08:10:21;1.67;;;0.50;;
59766;SDS011;46248;58.364;25.582;2023-02-28T08:13:45;1.30;;;0.68;;
59766;SDS011;46248;58.364;25.582;2023-02-28T08:17:09;3.00;;;0.80;;
59766;SDS011;46248;58.364;25.582;2023-02-28T08:20:34;0.52;;;0.45;;
59766;SDS011;46248;58.364;25.582;2023-02-28T08:23:58;0.85;;;0.38;;
59766;SDS011;46248;58.364;25.582;2023-02-28T08:27:22;1.17;;;0.90;;
59766;SDS011;46248;58.364;25.582;2023-02-28T08:30:45;0.75;;;0.50;;
59766;SDS011;46248;58.364;25.582;2023-02-28T08:34:08;1.83;;;0.70;;
59766;SDS011;46248;58.364;25.582;2023-02-28T08:37:35;1.80;;;0.88;;
59766;SDS011;46248;58.364;25.582;2023-02-28T08:40:58;3.63;;;0.82;;
59766;SDS011;46248;58.364;25.582;2023-02-28T08:44:22;4.68;;;0.80;;
59766;SDS011;46248;58.364;25.582;2023-02-28T08:47:45;4.30;;;0.52;;
59766;SDS011;46248;58.364;25.582;2023-02-28T08:51:11;1.52;;;0.60;;
59766;SDS011;46248;58.364;25.582;2023-02-28T08:54:37;1.33;;;0.70;;
59766;SDS011;46248;58.364;25.582;2023-02-28T08:58:00;1.42;;;0.40;;
59766;SDS011;46248;58.364;25.582;2023-02-28T09:01:24;3.75;;;1.02;;
59766;SDS011;46248;58.364;25.582;2023-02-28T09:04:50;1.10;;;0.90;;
59766;SDS011;46248;58.364;25.582;2023-02-28T09:08:13;2.20;;;0.50;;
59766;SDS011;46248;58.364;25.582;2023-02-28T09:11:38;0.63;;;0.40;;
59766;SDS011;46248;58.364;25.582;2023-02-28T09:15:02;1.50;;;1.08;;
59766;SDS011;46248;58.364;25.582;2023-02-28T09:18:26;11.07;;;4.50;;
59766;SDS011;46248;58.364;25.582;2023-02-28T09:21:49;3.30;;;2.22;;
59766;SDS011;46248;58.364;25.582;2023-02-28T09:25:13;10.90;;;3.72;;
59766;SDS011;46248;58.364;25.582;2023-02-28T09:28:37;17.50;;;7.07;;
59766;SDS011;46248;58.364;25.582;2023-02-28T09:32:00;6.72;;;2.00;;
59766;SDS011;46248;58.364;25.582;2023-02-28T09:35:27;2.00;;;1.20;;
59766;SDS011;46248;58.364;25.582;2023-02-28T09:38:51;3.65;;;2.38;;
59766;SDS011;46248;58.364;25.582;2023-02-28T09:42:18;1.50;;;1.40;;
59766;SDS011;46248;58.364;25.582;2023-02-28T09:45:49;2.03;;;0.80;;
59766;SDS011;46248;58.364;25.582;2023-02-28T09:49:19;3.10;;;1.00;;
59766;SDS011;46248;58.364;25.582;2023-02-28T09:52:50;5.95;;;3.20;;
59766;SDS011;46248;58.364;25.582;2023-02-28T09:56:18;5.07;;;2.47;;
59766;SDS011;46248;58.364;25.582;2023-02-28T09:59:51;1.67;;;1.25;;
59766;SDS011;46248;58.364;25.582;2023-02-28T10:03:31;0.90;;;0.90;;
59766;SDS011;46248;58.364;25.582;2023-02-28T10:06:58;1.70;;;0.90;;
59766;SDS011;46248;58.364;25.582;2023-02-28T10:10:24;1.80;;;0.90;;
59766;SDS011;46248;58.364;25.582;2023-02-28T10:13:53;1.85;;;0.50;;
59766;SDS011;46248;58.364;25.582;2023-02-28T10:17:25;2.35;;;0.68;;
59766;SDS011;46248;58.364;25.582;2023-02-28T10:21:05;3.42;;;1.30;;
59766;SDS011;46248;58.364;25.582;2023-02-28T10:27:57;3.00;;;1.20;;
59766;SDS011;46248;58.364;25.582;2023-02-28T10:31:28;2.33;;;0.90;;
59766;SDS011;46248;58.364;25.582;2023-02-28T10:34:52;2.38;;;0.90;;
59766;SDS011;46248;58.364;25.582;2023-02-28T10:38:22;2.17;;;1.13;;
59766;SDS011;46248;58.364;25.582;2023-02-28T10:41:47;0.43;;;0.40;;
59766;SDS011;46248;58.364;25.582;2023-02-28T10:45:14;2.80;;;0.98;;
59766;SDS011;46248;58.364;25.582;2023-02-28T10:48:39;5.85;;;2.67;;
59766;SDS011;46248;58.364;25.582;2023-02-28T10:52:07;8.13;;;3.28;;
59766;SDS011;46248;58.364;25.582;2023-02-28T10:55:35;1.05;;;0.70;;
59766;SDS011;46248;58.364;25.582;2023-02-28T10:59:00;1.00;;;0.38;;
59766;SDS011;46248;58.364;25.582;2023-02-28T11:02:29;0.50;;;0.50;;
59766;SDS011;46248;58.364;25.582;2023-02-28T11:05:56;1.77;;;0.98;;
59766;SDS011;46248;58.364;25.582;2023-02-28T11:09:22;2.53;;;0.90;;
59766;SDS011;46248;58.364;25.582;2023-02-28T11:12:56;1.05;;;0.65;;
59766;SDS011;46248;58.364;25.582;2023-02-28T11:16:21;2.85;;;1.20;;
59766;SDS011;46248;58.364;25.582;2023-02-28T11:19:55;1.10;;;0.70;;
59766;SDS011;46248;58.364;25.582;2023-02-28T11:23:23;2.78;;;1.05;;
59766;SDS011;46248;58.364;25.582;2023-02-28T11:26:50;4.45;;;2.67;;
59766;SDS011;46248;58.364;25.582;2023-02-28T11:30:32;4.47;;;2.70;;
59766;SDS011;46248;58.364;25.582;2023-02-28T11:33:58;3.33;;;2.33;;
59766;SDS011;46248;58.364;25.582;2023-02-28T11:37:28;4.03;;;1.90;;
59766;SDS011;46248;58.364;25.582;2023-02-28T11:41:05;3.28;;;1.83;;
59766;SDS011;46248;58.364;25.582;2023-02-28T11:44:48;3.38;;;1.60;;
59766;SDS011;46248;58.364;25.582;2023-02-28T11:48:22;3.55;;;1.00;;
59766;SDS011;46248;58.364;25.582;2023-02-28T11:51:51;4.43;;;2.03;;
59766;SDS011;46248;58.364;25.582;2023-02-28T11:55:24;2.08;;;1.20;;
59766;SDS011;46248;58.364;25.582;2023-02-28T11:58:52;1.60;;;1.50;;
59766;SDS011;46248;58.364;25.582;2023-02-28T12:02:26;5.97;;;2.25;;
59766;SDS011;46248;58.364;25.582;2023-02-28T12:05:56;3.08;;;1.40;;
59766;SDS011;46248;58.364;25.582;2023-02-28T12:09:34;4.22;;;1.83;;
59766;SDS011;46248;58.364;25.582;2023-02-28T12:13:08;3.80;;;1.63;;
59766;SDS011;46248;58.364;25.582;2023-02-28T12:16:45;2.95;;;1.50;;
59766;SDS011;46248;58.364;25.582;2023-02-28T12:23:59;5.55;;;1.40;;
59766;SDS011;46248;58.364;25.582;2023-02-28T12:27:38;2.30;;;1.35;;
59766;SDS011;46248;58.364;25.582;2023-02-28T12:31:05;6.45;;;1.67;;
59766;SDS011;46248;58.364;25.582;2023-02-28T12:34:33;3.50;;;1.10;;
59766;SDS011;46248;58.364;25.582;2023-02-28T12:38:01;1.85;;;1.42;;
59766;SDS011;46248;58.364;25.582;2023-02-28T12:41:32;9.17;;;3.07;;
59766;SDS011;46248;58.364;25.582;2023-02-28T12:45:03;6.50;;;1.20;;
59766;SDS011;46248;58.364;25.582;2023-02-28T12:48:31;6.00;;;1.85;;
59766;SDS011;46248;58.364;25.582;2023-02-28T12:52:01;4.95;;;1.98;;
59766;SDS011;46248;58.364;25.582;2023-02-28T12:55:28;5.03;;;1.75;;
59766;SDS011;46248;58.364;25.582;2023-02-28T12:59:00;3.53;;;1.38;;
59766;SDS011;46248;58.364;25.582;2023-02-28T13:02:41;6.28;;;2.38;;
59766;SDS011;46248;58.364;25.582;2023-02-28T13:06:38;6.05;;;1.75;;
59766;SDS011;46248;58.364;25.582;2023-02-28T13:10:17;5.47;;;2.85;;
59766;SDS011;46248;58.364;25.582;2023-02-28T13:13:41;3.97;;;2.35;;
59766;SDS011;46248;58.364;25.582;2023-02-28T13:17:12;14.35;;;5.82;;
59766;SDS011;46248;58.364;25.582;2023-02-28T13:20:46;31.67;;;11.52;;
59766;SDS011;46248;58.364;25.582;2023-02-28T13:24:12;17.98;;;8.40;;
59766;SDS011;46248;58.364;25.582;2023-02-28T13:28:00;10.73;;;5.50;;
59766;SDS011;46248;58.364;25.582;2023-02-28T13:31:25;10.85;;;5.05;;
59766;SDS011;46248;58.364;25.582;2023-02-28T13:38:56;9.77;;;4.55;;
59766;SDS011;46248;58.364;25.582;2023-02-28T13:42:22;7.22;;;2.58;;
59766;SDS011;46248;58.364;25.582;2023-02-28T13:46:08;7.97;;;3.80;;
59766;SDS011;46248;58.364;25.582;2023-02-28T13:57:04;9.10;;;4.70;;
59766;SDS011;46248;58.364;25.582;2023-02-28T14:00:43;5.38;;;3.13;;
59766;SDS011;46248;58.364;25.582;2023-02-28T14:08:17;2.60;;;1.45;;
59766;SDS011;46248;58.364;25.582;2023-02-28T14:11:44;9.10;;;2.60;;
59766;SDS011;46248;58.364;25.582;2023-02-28T14:18:58;5.25;;;1.98;;
59766;SDS011;46248;58.364;25.582;2023-02-28T14:22:39;11.88;;;5.10;;
59766;SDS011;46248;58.364;25.582;2023-02-28T14:26:18;24.92;;;9.85;;
59766;SDS011;46248;58.364;25.582;2023-02-28T14:33:53;8.90;;;3.38;;
59766;SDS011;46248;58.364;25.582;2023-02-28T14:37:26;7.95;;;2.53;;
59766;SDS011;46248;58.364;25.582;2023-02-28T14:40:53;15.80;;;5.78;;
59766;SDS011;46248;58.364;25.582;2023-02-28T14:44:19;10.32;;;3.88;;
59766;SDS011;46248;58.364;25.582;2023-02-28T14:47:43;5.88;;;2.33;;
59766;SDS011;46248;58.364;25.582;2023-02-28T14:51:07;4.70;;;1.80;;
59766;SDS011;46248;58.364;25.582;2023-02-28T14:54:32;3.40;;;1.70;;
59766;SDS011;46248;58.364;25.582;2023-02-28T14:57:55;6.30;;;2.38;;
59766;SDS011;46248;58.364;25.582;2023-02-28T15:01:21;7.35;;;3.13;;
59766;SDS011;46248;58.364;25.582;2023-02-28T15:04:53;10.23;;;4.10;;
59766;SDS011;46248;58.364;25.582;2023-02-28T15:08:20;35.88;;;16.90;;
59766;SDS011;46248;58.364;25.582;2023-02-28T15:11:45;65.93;;;42.75;;
59766;SDS011;46248;58.364;25.582;2023-02-28T15:15:14;76.68;;;52.10;;
59766;SDS011;46248;58.364;25.582;2023-02-28T15:18:41;41.70;;;30.15;;
59766;SDS011;46248;58.364;25.582;2023-02-28T15:22:11;115.82;;;103.75;;
59766;SDS011;46248;58.364;25.582;2023-02-28T15:25:40;42.83;;;31.20;;
59766;SDS011;46248;58.364;25.582;2023-02-28T15:29:05;29.30;;;13.90;;
59766;SDS011;46248;58.364;25.582;2023-02-28T15:32:31;16.98;;;9.18;;
59766;SDS011;46248;58.364;25.582;2023-02-28T15:36:06;15.93;;;8.57;;
59766;SDS011;46248;58.364;25.582;2023-02-28T15:39:40;27.05;;;14.35;;
59766;SDS011;46248;58.364;25.582;2023-02-28T15:43:12;32.22;;;12.65;;
59766;SDS011;46248;58.364;25.582;2023-02-28T15:46:37;17.58;;;8.80;;
59766;SDS011;46248;58.364;25.582;2023-02-28T15:50:01;15.30;;;7.10;;
59766;SDS011;46248;58.364;25.582;2023-02-28T15:53:30;19.70;;;7.80;;
59766;SDS011;46248;58.364;25.582;2023-02-28T15:56:56;11.40;;;4.97;;
59766;SDS011;46248;58.364;25.582;2023-02-28T16:00:22;6.40;;;3.67;;
59766;SDS011;46248;58.364;25.582;2023-02-28T16:03:48;5.68;;;4.53;;
59766;SDS011;46248;58.364;25.582;2023-02-28T16:07:12;8.52;;;4.75;;
59766;SDS011;46248;58.364;25.582;2023-02-28T16:10:36;11.50;;;5.47;;
59766;SDS011;46248;58.364;25.582;2023-02-28T16:13:59;8.32;;;4.30;;
59766;SDS011;46248;58.364;25.582;2023-02-28T16:17:25;11.18;;;4.57;;
59766;SDS011;46248;58.364;25.582;2023-02-28T16:20:50;11.75;;;5.18;;
59766;SDS011;46248;58.364;25.582;2023-02-28T16:24:13;5.20;;;2.50;;
59766;SDS011;46248;58.364;25.582;2023-02-28T16:27:37;9.65;;;3.00;;
59766;SDS011;46248;58.364;25.582;2023-02-28T16:31:01;15.85;;;3.33;;
59766;SDS011;46248;58.364;25.582;2023-02-28T16:34:26;16.30;;;6.35;;
59766;SDS011;46248;58.364;25.582;2023-02-28T16:37:50;10.38;;;4.93;;
59766;SDS011;46248;58.364;25.582;2023-02-28T16:41:17;5.88;;;3.20;;
59766;SDS011;46248;58.364;25.582;2023-02-28T16:44:41;11.82;;;4.18;;
59766;SDS011;46248;58.364;25.582;2023-02-28T16:48:04;8.80;;;3.03;;
59766;SDS011;46248;58.364;25.582;2023-02-28T16:51:29;9.68;;;4.78;;
59766;SDS011;46248;58.364;25.582;2023-02-28T16:54:54;6.38;;;2.95;;
59766;SDS011;46248;58.364;25.582;2023-02-28T16:58:18;8.05;;;3.42;;
59766;SDS011;46248;58.364;25.582;2023-02-28T17:01:42;8.18;;;2.47;;
59766;SDS011;46248;58.364;25.582;2023-02-28T17:05:06;19.75;;;6.95;;
59766;SDS011;46248;58.364;25.582;2023-02-28T17:08:32;47.50;;;20.20;;
59766;SDS011;46248;58.364;25.582;2023-02-28T17:11:56;26.60;;;12.50;;
59766;SDS011;46248;58.364;25.582;2023-02-28T17:15:20;12.15;;;6.40;;
59766;SDS011;46248;58.364;25.582;2023-02-28T17:18:44;7.07;;;3.80;;
59766;SDS011;46248;58.364;25.582;2023-02-28T17:22:07;9.57;;;3.53;;
59766;SDS011;46248;58.364;25.582;2023-02-28T17:25:33;11.73;;;5.63;;
59766;SDS011;46248;58.364;25.582;2023-02-28T17:28:56;9.30;;;4.07;;
59766;SDS011;46248;58.364;25.582;2023-02-28T17:32:20;10.52;;;3.17;;
59766;SDS011;46248;58.364;25.582;2023-02-28T17:35:43;27.10;;;9.77;;
59766;SDS011;46248;58.364;25.582;2023-02-28T17:39:08;41.10;;;15.18;;
59766;SDS011;46248;58.364;25.582;2023-02-28T17:42:36;60.75;;;21.80;;
59766;SDS011;46248;58.364;25.582;2023-02-28T17:45:59;38.38;;;14.13;;
59766;SDS011;46248;58.364;25.582;2023-02-28T17:49:23;28.80;;;12.07;;
59766;SDS011;46248;58.364;25.582;2023-02-28T17:52:47;35.63;;;13.80;;
59766;SDS011;46248;58.364;25.582;2023-02-28T17:56:12;35.60;;;13.32;;
59766;SDS011;46248;58.364;25.582;2023-02-28T17:59:37;62.47;;;22.80;;
59766;SDS011;46248;58.364;25.582;2023-02-28T18:03:03;27.77;;;10.90;;
59766;SDS011;46248;58.364;25.582;2023-02-28T18:06:27;34.97;;;17.20;;
59766;SDS011;46248;58.364;25.582;2023-02-28T18:09:55;26.25;;;16.40;;
59766;SDS011;46248;58.364;25.582;2023-02-28T18:13:18;13.55;;;8.18;;
59766;SDS011;46248;58.364;25.582;2023-02-28T18:16:44;9.18;;;4.35;;
59766;SDS011;46248;58.364;25.582;2023-02-28T18:20:08;13.23;;;7.43;;
59766;SDS011;46248;58.364;25.582;2023-02-28T18:23:32;9.60;;;5.10;;
59766;SDS011;46248;58.364;25.582;2023-02-28T18:26:55;11.30;;;2.90;;
59766;SDS011;46248;58.364;25.582;2023-02-28T18:30:18;8.63;;;2.78;;
59766;SDS011;46248;58.364;25.582;2023-02-28T18:33:44;9.40;;;3.90;;
59766;SDS011;46248;58.364;25.582;2023-02-28T18:37:10;6.77;;;4.40;;
59766;SDS011;46248;58.364;25.582;2023-02-28T18:40:36;13.02;;;5.95;;
59766;SDS011;46248;58.364;25.582;2023-02-28T18:44:00;13.23;;;4.03;;
59766;SDS011;46248;58.364;25.582;2023-02-28T18:47:38;10.77;;;4.50;;
59766;SDS011;46248;58.364;25.582;2023-02-28T18:51:07;10.40;;;4.03;;
59766;SDS011;46248;58.364;25.582;2023-02-28T18:54:31;8.57;;;5.43;;
59766;SDS011;46248;58.364;25.582;2023-02-28T18:57:54;7.90;;;3.10;;
59766;SDS011;46248;58.364;25.582;2023-02-28T19:01:18;8.50;;;3.22;;
59766;SDS011;46248;58.364;25.582;2023-02-28T19:04:42;6.53;;;2.60;;
59766;SDS011;46248;58.364;25.582;2023-02-28T19:08:08;6.93;;;3.13;;
59766;SDS011;46248;58.364;25.582;2023-02-28T19:11:32;11.95;;;4.13;;
59766;SDS011;46248;58.364;25.582;2023-02-28T19:14:57;14.75;;;4.85;;
59766;SDS011;46248;58.364;25.582;2023-02-28T19:18:20;12.65;;;4.05;;
59766;SDS011;46248;58.364;25.582;2023-02-28T19:21:45;8.95;;;3.78;;
59766;SDS011;46248;58.364;25.582;2023-02-28T19:25:10;7.80;;;3.92;;
59766;SDS011;46248;58.364;25.582;2023-02-28T19:28:36;7.72;;;2.40;;
59766;SDS011;46248;58.364;25.582;2023-02-28T19:32:00;8.35;;;2.70;;
59766;SDS011;46248;58.364;25.582;2023-02-28T19:35:25;9.45;;;3.65;;
59766;SDS011;46248;58.364;25.582;2023-02-28T19:38:49;11.43;;;3.53;;
59766;SDS011;46248;58.364;25.582;2023-02-28T19:42:16;7.28;;;3.00;;
59766;SDS011;46248;58.364;25.582;2023-02-28T19:45:40;9.35;;;4.20;;
59766;SDS011;46248;58.364;25.582;2023-02-28T19:49:04;7.30;;;2.40;;
59766;SDS011;46248;58.364;25.582;2023-02-28T19:52:29;5.45;;;2.25;;
59766;SDS011;46248;58.364;25.582;2023-02-28T19:55:55;9.75;;;3.08;;
59766;SDS011;46248;58.364;25.582;2023-02-28T19:59:20;7.85;;;2.95;;
59766;SDS011;46248;58.364;25.582;2023-02-28T20:02:58;7.67;;;1.50;;
59766;SDS011;46248;58.364;25.582;2023-02-28T20:06:23;4.70;;;2.22;;
59766;SDS011;46248;58.364;25.582;2023-02-28T20:09:50;8.40;;;1.95;;
59766;SDS011;46248;58.364;25.582;2023-02-28T20:13:14;6.47;;;1.90;;
59766;SDS011;46248;58.364;25.582;2023-02-28T20:16:45;3.95;;;1.98;;
59766;SDS011;46248;58.364;25.582;2023-02-28T20:20:17;8.93;;;2.80;;
59766;SDS011;46248;58.364;25.582;2023-02-28T20:23:42;8.55;;;3.10;;
59766;SDS011;46248;58.364;25.582;2023-02-28T20:27:07;8.40;;;2.25;;
59766;SDS011;46248;58.364;25.582;2023-02-28T20:30:32;12.60;;;3.25;;
59766;SDS011;46248;58.364;25.582;2023-02-28T20:33:59;6.32;;;1.80;;
59766;SDS011;46248;58.364;25.582;2023-02-28T20:37:26;6.95;;;1.90;;
59766;SDS011;46248;58.364;25.582;2023-02-28T20:40:54;8.82;;;2.92;;
59766;SDS011;46248;58.364;25.582;2023-02-28T20:44:21;9.80;;;2.05;;
59766;SDS011;46248;58.364;25.582;2023-02-28T20:47:46;8.43;;;2.20;;
59766;SDS011;46248;58.364;25.582;2023-02-28T20:51:14;2.70;;;1.33;;
59766;SDS011;46248;58.364;25.582;2023-02-28T20:54:40;9.90;;;1.70;;
59766;SDS011;46248;58.364;25.582;2023-02-28T20:58:05;6.43;;;1.77;;
59766;SDS011;46248;58.364;25.582;2023-02-28T21:01:33;3.92;;;2.17;;